Share

Tellejaur, Sweden

Vidsel Air Base (ESPE) Elev 597 ft | 65.88 °N, 20.14 °E | Change Station

Current weather conditions updated 28 minutes ago

Partly Cloudy
Partly Cloudy
46 °F
Feels Like 42 °F
N
9
Wind Variable Wind from West
Sunrise 4:45 AM
Sunset 8:37 PM
Moon Waning Gibbous

Today is forecast to be Warmer than yesterday.

Pressure 29.86 in
Visibility 6.2 miles
Clouds Few 15000 ft
Windchill 42 °F
Dew Point 30 °F
Humidity 53%
Rainfall 0.00 in
Snow Depth Not available.
UV 3 out of 16
Pollen Not available.
Air Quality Not available.
Flu Activity Not available.
METAR ESPE 190750Z AUTO 26008KT 210V310 9999NDV FEW150/// 08/M01 Q1011

More Conditions Fewer Conditions

Pressure 29.86 in
Visibility 6.2 miles
Clouds Few 15000 ft
Windchill 42 °F
Dew Point 30 °F
Humidity 53%
Rainfall 0.00 in
Snow Depth Not available.
UV 3 out of 16
Pollen Not available.
Air Quality Not available.
Flu Activity Not available.
METAR ESPE 190750Z AUTO 26008KT 210V310 9999NDV FEW150/// 08/M01 Q1011

More Conditions Fewer Conditions

10-Day Weather Forecast

Almanac

Astronomy

Apr. 19, 2014 Rise Set
Actual Time 4:45 AM CEST 8:37 PM CEST
Civil Twilight 3:40 AM CEST 9:44 PM CEST
Nautical Twilight 1:40 AM CEST 11:54 PM CEST
Astronomical Twilight Sun does not rise Sun does not rise
Moon 1:12 AM CEST 6:36 AM CEST
Length of Visible Light 18h 03m
Length of Day
15h 52m
Tomorrow will be 7m 28s longer.
Waning Gibbous, 82% of the Moon is Illuminated
Today
Waning Gibbous
Apr 22
Last Quarter
Apr 29
New
May 6
First Quarter
May 14
Full

Yesterday's Extremes

Country Highs Country Lows

Community

  • Sunset Silhouettes
    Sunset Silhouettes
  • FL sunset Perico Isle
    FL sunset Perico Isle
  • Cloudy spring view
    Cloudy spring view
  • Old barn
    Old barn
  • What's for Lunch?
    What's for Lunch?

WunderPhotos

Upload Photos

1,702,670 photos uploaded!

WunderBlogs® & News

Nearby

Snow Depth

Not available.

Coastal Water Temperatures

Place Temperature
No Stations Reporting

Earthquake Activity

City Distance Mag. Time & Date
No recent earthquake activity has been reported nearby.
Minimum magnitude displayed is 2.5.

Nearby Weather Stations

There are no personal weather stations in this area.

What do you think?

We're not finished. Please let us know what you like, what you don't like, and what you are still missing.